createdAt,value
2017-11-19T00:01:41.652Z,84.42
2017-11-19T00:04:09.376Z,84.39
2017-11-19T00:06:37.611Z,84.31
2017-11-19T00:09:05.220Z,84.51
2017-11-19T00:11:32.807Z,84.51
2017-11-19T00:14:00.430Z,84.63
2017-11-19T00:16:28.048Z,84.50
2017-11-19T00:18:55.662Z,84.24
2017-11-19T00:21:23.294Z,84.40
2017-11-19T00:23:51.254Z,84.34
2017-11-19T00:26:18.897Z,84.33
2017-11-19T00:28:46.551Z,84.54
2017-11-19T00:31:14.146Z,84.42
2017-11-19T00:33:41.785Z,84.42
2017-11-19T00:36:09.439Z,84.58
2017-11-19T00:38:37.053Z,84.49
2017-11-19T00:41:05.060Z,84.43
2017-11-19T00:43:32.645Z,84.26
2017-11-19T00:46:00.251Z,84.30
2017-11-19T00:48:27.881Z,84.33
2017-11-19T00:50:55.554Z,84.48
2017-11-19T00:53:23.188Z,84.21
2017-11-19T00:55:50.789Z,84.33
2017-11-19T00:58:18.370Z,84.42
2017-11-19T01:00:45.989Z,84.34
2017-11-19T01:03:13.574Z,84.14
2017-11-19T01:05:41.517Z,83.92
2017-11-19T01:08:09.107Z,84.17
2017-11-19T01:10:36.722Z,84.43
2017-11-19T01:13:04.338Z,84.49
2017-11-19T01:15:31.932Z,84.70
2017-11-19T01:17:59.561Z,84.96
2017-11-19T01:20:27.171Z,85.25
2017-11-19T01:22:55.571Z,85.29
2017-11-19T01:25:23.185Z,85.14
2017-11-19T01:27:50.881Z,85.31
2017-11-19T01:30:18.544Z,84.89
2017-11-19T01:32:46.140Z,85.05
2017-11-19T01:35:13.770Z,85.05
2017-11-19T01:37:41.462Z,85.28
2017-11-19T01:40:09.326Z,85.30
2017-11-19T01:42:36.987Z,85.74
2017-11-19T01:45:04.709Z,85.58
2017-11-19T01:47:32.321Z,85.59
2017-11-19T01:49:59.957Z,85.64
2017-11-19T01:52:27.551Z,85.65
2017-11-19T01:54:55.216Z,85.23
2017-11-19T01:57:22.869Z,85.35
2017-11-19T01:59:50.469Z,85.34
2017-11-19T02:02:29.832Z,85.02
2017-11-19T02:04:57.440Z,85.10
2017-11-19T02:07:25.240Z,85.04
2017-11-19T02:09:52.849Z,85.11
2017-11-19T02:12:20.449Z,84.82
2017-11-19T02:14:48.193Z,84.48
2017-11-19T02:17:16.145Z,84.45
2017-11-19T02:19:43.785Z,84.30
2017-11-19T02:22:11.386Z,84.27
2017-11-19T02:24:39.027Z,84.07
2017-11-19T02:27:06.673Z,84.18
2017-11-19T02:29:34.259Z,84.31
2017-11-19T02:32:02.219Z,84.29
2017-11-19T02:34:29.890Z,84.29
2017-11-19T02:36:57.509Z,84.39
2017-11-19T02:39:25.118Z,84.76
2017-11-19T02:41:52.982Z,84.74
2017-11-19T02:44:20.649Z,84.69
2017-11-19T02:46:48.287Z,84.77
2017-11-19T02:49:15.891Z,85.21
2017-11-19T02:51:43.596Z,85.68
2017-11-19T02:54:11.241Z,86.02
2017-11-19T02:56:38.991Z,85.68
2017-11-19T02:59:06.588Z,85.70
2017-11-19T03:01:34.262Z,85.79
2017-11-19T03:04:01.876Z,85.75
2017-11-19T03:06:29.540Z,85.36
2017-11-19T03:08:57.173Z,85.27
2017-11-19T03:11:24.847Z,85.17
2017-11-19T03:13:52.447Z,85.00
2017-11-19T03:16:20.059Z,84.63
2017-11-19T03:18:47.655Z,84.75
2017-11-19T03:21:15.282Z,84.68
2017-11-19T03:23:42.880Z,84.67
2017-11-19T03:26:10.515Z,84.61
2017-11-19T03:28:38.127Z,84.42
2017-11-19T03:31:05.754Z,84.34
2017-11-19T03:33:33.594Z,84.24
2017-11-19T03:36:01.201Z,83.86
2017-11-19T03:38:28.797Z,83.95
2017-11-19T03:40:56.453Z,83.90
2017-11-19T03:43:24.351Z,83.41
2017-11-19T03:45:51.979Z,83.63
2017-11-19T03:48:19.569Z,83.20
2017-11-19T03:50:47.184Z,83.31
2017-11-19T03:53:14.831Z,83.10
2017-11-19T03:55:42.466Z,83.03
2017-11-19T03:58:10.105Z,82.97
2017-11-19T04:00:37.735Z,82.77
2017-11-19T04:03:05.313Z,82.96
2017-11-19T04:05:32.963Z,83.08
2017-11-19T04:08:00.554Z,82.73
2017-11-19T04:10:28.213Z,82.77
2017-11-19T04:12:55.843Z,82.59
2017-11-19T04:15:23.505Z,82.35
2017-11-19T04:17:51.426Z,82.26
2017-11-19T04:20:19.026Z,82.20
2017-11-19T04:22:46.688Z,81.99
2017-11-19T04:25:14.290Z,81.93
2017-11-19T04:27:41.872Z,82.03
2017-11-19T04:30:09.489Z,82.26
2017-11-19T04:32:37.091Z,81.96
2017-11-19T04:35:04.734Z,81.82
2017-11-19T04:37:32.336Z,81.54
2017-11-19T04:39:59.920Z,81.74
2017-11-19T04:42:27.567Z,82.21
2017-11-19T04:44:55.163Z,82.06
2017-11-19T04:47:23.029Z,81.95
2017-11-19T04:49:50.953Z,81.93
2017-11-19T04:52:18.822Z,81.82
2017-11-19T04:54:46.444Z,81.81
2017-11-19T04:57:14.042Z,81.68
2017-11-19T04:59:41.730Z,81.91
2017-11-19T05:02:09.329Z,81.80
2017-11-19T05:04:36.927Z,82.17
2017-11-19T05:07:04.561Z,81.79
2017-11-19T05:09:32.150Z,81.63
2017-11-19T05:11:59.790Z,81.62
2017-11-19T05:14:27.376Z,82.03
2017-11-19T05:16:54.982Z,81.94
2017-11-19T05:19:22.661Z,81.68
2017-11-19T05:21:50.259Z,81.58
2017-11-19T05:24:17.884Z,81.76
2017-11-19T05:26:45.482Z,82.06
2017-11-19T05:29:13.125Z,82.04
2017-11-19T05:31:40.742Z,82.22
2017-11-19T05:34:08.336Z,81.91
2017-11-19T05:36:35.960Z,81.79
2017-11-19T05:39:03.620Z,81.42
2017-11-19T05:41:31.222Z,81.40
2017-11-19T05:43:58.863Z,81.47
2017-11-19T05:46:26.468Z,81.64
2017-11-19T05:48:54.117Z,81.59
2017-11-19T05:51:21.721Z,81.41
2017-11-19T05:53:49.352Z,81.19
2017-11-19T05:56:16.987Z,81.42
2017-11-19T05:58:44.597Z,81.17
2017-11-19T06:01:12.258Z,81.71
2017-11-19T06:03:39.887Z,83.09
2017-11-19T06:06:07.491Z,83.59
2017-11-19T06:08:35.115Z,83.76
2017-11-19T06:11:02.810Z,83.75
2017-11-19T06:13:30.462Z,83.74
2017-11-19T06:15:58.074Z,83.63
2017-11-19T06:18:25.767Z,83.43
2017-11-19T06:20:53.417Z,83.11
2017-11-19T06:23:21.014Z,83.27
2017-11-19T06:25:48.697Z,83.01
2017-11-19T06:28:16.336Z,82.97
2017-11-19T06:30:44.838Z,82.84
2017-11-19T06:33:12.596Z,82.48
2017-11-19T06:35:40.259Z,82.83
2017-11-19T06:38:07.907Z,82.73
2017-11-19T06:40:35.790Z,82.70
2017-11-19T06:43:03.465Z,82.73
2017-11-19T06:45:31.116Z,82.74
2017-11-19T06:47:58.744Z,82.59
2017-11-19T06:50:26.401Z,82.55
2017-11-19T06:52:54.008Z,82.46
2017-11-19T06:55:21.648Z,82.34
2017-11-19T06:57:49.297Z,82.53
2017-11-19T07:00:17.011Z,82.20
2017-11-19T07:02:44.663Z,82.42
2017-11-19T07:05:12.274Z,82.31
2017-11-19T07:07:39.897Z,82.41
2017-11-19T07:10:07.550Z,82.53
2017-11-19T07:12:35.220Z,82.55
2017-11-19T07:15:02.943Z,82.55
2017-11-19T07:17:30.701Z,82.65
2017-11-19T07:19:58.310Z,82.69
2017-11-19T07:22:26.269Z,82.30
2017-11-19T07:24:53.875Z,82.45
2017-11-19T07:27:21.478Z,82.05
2017-11-19T07:29:49.115Z,82.18
2017-11-19T07:32:16.725Z,81.81
2017-11-19T07:34:44.337Z,82.09
2017-11-19T07:37:12.111Z,82.19
2017-11-19T07:39:39.722Z,82.29
2017-11-19T07:42:07.377Z,82.23
2017-11-19T07:44:35.200Z,81.93
2017-11-19T07:47:02.875Z,81.33
2017-11-19T07:49:30.523Z,81.26
2017-11-19T07:51:58.177Z,81.13
2017-11-19T07:54:25.889Z,81.25
2017-11-19T07:56:53.545Z,80.98
2017-11-19T07:59:21.158Z,81.40
2017-11-19T08:01:48.784Z,81.48
2017-11-19T08:04:16.442Z,81.21
2017-11-19T08:06:44.308Z,81.04
2017-11-19T08:09:11.948Z,80.36
2017-11-19T08:11:39.559Z,80.12
2017-11-19T08:14:07.178Z,80.06
2017-11-19T08:16:34.849Z,80.33
2017-11-19T08:19:02.462Z,79.81
2017-11-19T08:21:30.183Z,79.58
2017-11-19T08:23:57.838Z,79.91
2017-11-19T08:26:25.821Z,80.31
2017-11-19T08:28:53.601Z,80.17
2017-11-19T08:31:21.242Z,79.59
2017-11-19T08:33:49.807Z,80.18
2017-11-19T08:36:17.633Z,79.52
2017-11-19T08:38:45.247Z,79.36
2017-11-19T08:41:12.954Z,79.45
2017-11-19T08:43:43.046Z,79.35
2017-11-19T08:46:10.692Z,79.29
2017-11-19T08:48:38.309Z,79.62
2017-11-19T08:51:05.902Z,79.97
2017-11-19T08:53:33.525Z,79.96
2017-11-19T08:56:01.127Z,79.82
2017-11-19T08:58:28.764Z,79.36
2017-11-19T09:00:56.418Z,79.50
2017-11-19T09:03:24.074Z,79.22
2017-11-19T09:05:51.735Z,78.76
2017-11-19T09:08:19.397Z,78.77
2017-11-19T09:10:47.065Z,78.00
2017-11-19T09:13:14.666Z,78.27
2017-11-19T09:15:42.294Z,78.43
2017-11-19T09:18:09.941Z,78.49
2017-11-19T09:20:37.608Z,78.39
2017-11-19T09:23:05.240Z,78.17
2017-11-19T09:25:32.860Z,77.69
2017-11-19T09:28:00.546Z,77.11
2017-11-19T09:30:28.152Z,77.65
2017-11-19T09:32:56.424Z,77.74
2017-11-19T09:35:24.091Z,77.70
2017-11-19T09:37:51.736Z,77.99
2017-11-19T09:40:19.425Z,78.09
2017-11-19T09:42:47.060Z,78.23
2017-11-19T09:45:14.753Z,78.56
2017-11-19T09:47:42.399Z,78.38
2017-11-19T09:50:09.981Z,77.85
2017-11-19T09:52:37.616Z,78.17
2017-11-19T09:55:05.590Z,78.46
2017-11-19T09:57:33.191Z,78.68
2017-11-19T10:00:00.971Z,78.45
2017-11-19T10:02:28.587Z,78.18
2017-11-19T10:04:56.294Z,78.03
2017-11-19T10:07:23.910Z,77.76
2017-11-19T10:09:51.492Z,78.32
2017-11-19T10:12:19.134Z,78.77
2017-11-19T10:14:46.802Z,78.85
2017-11-19T10:17:14.477Z,79.25
2017-11-19T10:19:42.109Z,79.26
2017-11-19T10:22:09.980Z,80.60
2017-11-19T10:24:37.636Z,81.29
2017-11-19T10:27:05.326Z,81.54
2017-11-19T10:29:32.981Z,81.84
2017-11-19T10:32:00.595Z,82.12
2017-11-19T10:34:28.278Z,81.92
2017-11-19T10:36:56.630Z,81.50
2017-11-19T10:39:24.229Z,81.50
2017-11-19T10:41:51.892Z,81.74
2017-11-19T10:44:19.485Z,81.96
2017-11-19T10:46:47.118Z,82.46
2017-11-19T10:49:14.749Z,82.58
2017-11-19T10:51:42.358Z,82.23
2017-11-19T10:54:11.185Z,81.86
2017-11-19T10:56:38.832Z,81.50
2017-11-19T10:59:06.496Z,81.01
2017-11-19T11:01:34.128Z,80.74
2017-11-19T11:04:01.794Z,80.57
2017-11-19T11:06:29.457Z,81.34
2017-11-19T11:08:57.230Z,80.90
2017-11-19T11:11:24.861Z,80.69
2017-11-19T11:13:52.548Z,80.52
2017-11-19T11:16:20.505Z,80.30
2017-11-19T11:18:48.189Z,80.13
2017-11-19T11:21:15.807Z,80.15
2017-11-19T11:23:43.402Z,79.67
2017-11-19T11:26:11.310Z,79.06
2017-11-19T11:28:38.925Z,78.76
2017-11-19T11:31:06.606Z,78.40
2017-11-19T11:33:34.358Z,78.16
2017-11-19T11:36:01.983Z,77.80
2017-11-19T11:38:29.644Z,77.53
2017-11-19T11:40:57.290Z,77.71
2017-11-19T11:43:24.968Z,78.58
2017-11-19T11:45:52.547Z,77.28
2017-11-19T11:48:20.126Z,76.42
2017-11-19T11:50:47.850Z,76.53
2017-11-19T11:53:15.532Z,76.55
2017-11-19T11:55:43.314Z,77.12
2017-11-19T11:58:10.938Z,77.93
2017-11-19T12:00:38.519Z,78.58
2017-11-19T12:03:06.304Z,79.14
2017-11-19T12:05:33.926Z,79.18
2017-11-19T12:08:01.567Z,80.98
2017-11-19T12:10:29.230Z,81.90
2017-11-19T12:12:56.825Z,82.01
2017-11-19T12:15:24.451Z,81.78
2017-11-19T12:17:52.094Z,82.88
2017-11-19T12:20:19.730Z,83.40
2017-11-19T12:22:47.449Z,84.09
2017-11-19T12:25:15.124Z,84.40
2017-11-19T12:27:42.762Z,84.63
2017-11-19T12:30:10.840Z,85.04
2017-11-19T12:32:38.986Z,84.92
2017-11-19T12:35:06.647Z,85.57
2017-11-19T12:37:34.319Z,86.52
2017-11-19T12:40:01.984Z,86.58
2017-11-19T12:42:29.639Z,86.02
2017-11-19T12:44:57.580Z,84.55
2017-11-19T12:47:25.549Z,84.34
2017-11-19T12:49:53.176Z,84.91
2017-11-19T12:52:20.838Z,85.11
2017-11-19T12:54:48.892Z,84.81
2017-11-19T12:57:16.618Z,84.56
2017-11-19T12:59:44.851Z,84.81
2017-11-19T13:02:12.514Z,83.56
2017-11-19T13:04:40.202Z,84.14
2017-11-19T13:07:07.975Z,83.60
2017-11-19T13:09:35.642Z,82.70
2017-11-19T13:12:03.343Z,82.84
2017-11-19T13:14:31.049Z,82.77
2017-11-19T13:16:58.830Z,82.44
2017-11-19T13:19:26.446Z,82.63
2017-11-19T13:21:54.636Z,82.76
2017-11-19T13:24:22.354Z,82.92
2017-11-19T13:26:49.957Z,82.96
2017-11-19T13:29:18.426Z,82.61
2017-11-19T13:31:46.020Z,83.39
2017-11-19T13:34:13.661Z,83.76
2017-11-19T13:36:41.279Z,83.96
2017-11-19T13:39:08.894Z,83.90
2017-11-19T13:41:36.558Z,83.57
2017-11-19T13:44:04.503Z,83.62
2017-11-19T13:49:05.920Z,83.81
2017-11-19T13:51:33.582Z,83.67
2017-11-19T13:54:01.437Z,83.83
2017-11-19T13:56:29.426Z,83.17
2017-11-19T13:58:57.161Z,83.39
2017-11-19T14:01:24.843Z,83.59
2017-11-19T14:03:52.568Z,84.27
2017-11-19T14:06:26.165Z,85.25
2017-11-19T14:08:53.835Z,85.62
2017-11-19T14:11:21.429Z,85.84
2017-11-19T14:13:49.057Z,85.72
2017-11-19T14:16:16.812Z,85.65
2017-11-19T14:18:44.455Z,85.96
2017-11-19T14:21:12.109Z,85.64
2017-11-19T14:23:39.714Z,86.07
2017-11-19T14:26:07.314Z,86.09
2017-11-19T14:28:34.930Z,85.83
2017-11-19T14:31:02.652Z,85.74
2017-11-19T14:33:30.649Z,85.59
2017-11-19T14:35:58.267Z,85.05
2017-11-19T14:38:25.856Z,84.92
2017-11-19T14:40:53.474Z,85.67
2017-11-19T14:43:21.093Z,85.99
2017-11-19T14:45:48.753Z,85.91
2017-11-19T14:48:16.426Z,85.56
2017-11-19T14:50:44.293Z,85.75
2017-11-19T14:53:11.923Z,85.79
2017-11-19T14:55:39.550Z,85.86
2017-11-19T14:58:07.197Z,85.78
2017-11-19T15:00:34.859Z,85.55
2017-11-19T15:03:02.475Z,85.12
2017-11-19T15:05:30.110Z,85.56
2017-11-19T15:07:57.839Z,85.10
2017-11-19T15:10:25.487Z,85.10
2017-11-19T15:12:53.120Z,85.05
2017-11-19T15:15:20.747Z,84.56
2017-11-19T15:17:48.392Z,84.06
2017-11-19T15:20:16.004Z,83.88
2017-11-19T15:22:43.915Z,83.99
2017-11-19T15:25:11.744Z,83.60
2017-11-19T15:27:39.385Z,84.86
2017-11-19T15:30:07.011Z,85.18
2017-11-19T15:32:34.722Z,85.46
2017-11-19T15:35:02.349Z,86.11
2017-11-19T15:37:29.966Z,86.73
2017-11-19T15:39:57.668Z,86.98
2017-11-19T15:42:25.294Z,86.91
2017-11-19T15:44:53.169Z,86.84
2017-11-19T15:47:20.875Z,88.40
2017-11-19T15:49:48.565Z,88.99
2017-11-19T15:52:16.296Z,89.20
2017-11-19T15:54:44.189Z,88.82
2017-11-19T15:57:11.826Z,88.54
2017-11-19T15:59:39.509Z,88.60
2017-11-19T16:02:07.180Z,88.29
2017-11-19T16:04:35.675Z,88.72
2017-11-19T16:07:03.356Z,89.13
2017-11-19T16:09:31.151Z,89.35
2017-11-19T16:11:58.795Z,89.31
2017-11-19T16:14:26.409Z,89.27
2017-11-19T16:16:54.098Z,89.38
2017-11-19T16:19:21.696Z,88.29
2017-11-19T16:21:49.337Z,88.12
2017-11-19T16:24:16.983Z,87.62
2017-11-19T16:26:44.646Z,87.50
2017-11-19T16:29:12.288Z,87.44
2017-11-19T16:31:39.898Z,87.56
2017-11-19T16:34:07.558Z,86.95
2017-11-19T16:36:35.199Z,87.55
2017-11-19T16:39:02.864Z,86.31
2017-11-19T16:41:30.521Z,85.02
2017-11-19T16:43:58.203Z,85.31
2017-11-19T16:46:25.880Z,85.28
2017-11-19T16:48:53.511Z,85.90
2017-11-19T16:51:21.162Z,86.49
2017-11-19T16:53:48.822Z,87.50
2017-11-19T16:56:16.414Z,87.97
2017-11-19T16:58:45.388Z,88.68
2017-11-19T17:01:18.345Z,88.35
2017-11-19T17:03:46.300Z,88.65
2017-11-19T17:08:46.782Z,86.73
2017-11-19T17:11:14.370Z,86.99
2017-11-19T17:13:41.957Z,82.98
2017-11-19T17:16:09.574Z,84.12
2017-11-19T17:18:37.471Z,84.05
2017-11-19T17:21:05.116Z,84.55
2017-11-19T17:23:32.721Z,83.90
2017-11-19T17:26:00.322Z,84.35
2017-11-19T17:28:27.977Z,84.80
2017-11-19T17:30:55.671Z,84.79
2017-11-19T17:33:23.297Z,86.24
2017-11-19T17:35:56.490Z,86.71
2017-11-19T17:38:24.150Z,87.50
2017-11-19T17:40:51.785Z,87.31
2017-11-19T17:43:19.391Z,87.58
2017-11-19T17:45:47.044Z,88.33
2017-11-19T17:48:14.697Z,88.71
2017-11-19T17:50:42.353Z,89.12
2017-11-19T17:53:10.031Z,89.81
2017-11-19T17:55:37.647Z,90.19
2017-11-19T17:58:05.304Z,90.19
2017-11-19T18:00:32.955Z,90.33
2017-11-19T18:03:00.595Z,90.46
2017-11-19T18:05:28.179Z,90.50
2017-11-19T18:07:55.779Z,89.85
2017-11-19T18:10:23.393Z,88.43
2017-11-19T18:12:51.225Z,88.34
2017-11-19T18:15:18.890Z,88.08
2017-11-19T18:17:46.483Z,87.76
2017-11-19T18:20:14.092Z,88.03
2017-11-19T18:22:41.747Z,88.39
2017-11-19T18:25:09.378Z,88.44
2017-11-19T18:27:37.086Z,88.53
2017-11-19T18:30:04.741Z,88.70
2017-11-19T18:32:32.410Z,88.41
2017-11-19T18:35:00.042Z,87.89
2017-11-19T18:37:28.172Z,88.47
2017-11-19T18:39:55.813Z,87.67
2017-11-19T18:42:23.506Z,88.07
2017-11-19T18:44:51.172Z,87.81
2017-11-19T18:47:18.796Z,87.93
2017-11-19T18:49:46.407Z,87.49
2017-11-19T18:52:14.030Z,86.53
2017-11-19T18:54:41.657Z,87.07
2017-11-19T18:57:09.366Z,86.67
2017-11-19T18:59:37.008Z,85.86
2017-11-19T19:02:04.885Z,86.63
2017-11-19T19:04:32.877Z,85.29
2017-11-19T19:07:00.481Z,85.03
2017-11-19T19:09:28.116Z,84.56
2017-11-19T19:11:55.777Z,84.54
2017-11-19T19:14:23.357Z,85.13
2017-11-19T19:16:51.403Z,85.22
2017-11-19T19:19:19.070Z,85.28
2017-11-19T19:21:47.118Z,85.99
2017-11-19T19:24:14.803Z,84.62
2017-11-19T19:26:42.421Z,85.04
2017-11-19T19:29:10.085Z,84.80
2017-11-19T19:31:37.706Z,84.06
2017-11-19T19:34:05.320Z,84.59
2017-11-19T19:36:32.998Z,84.78
2017-11-19T19:39:00.953Z,84.78
2017-11-19T19:41:28.611Z,84.73
2017-11-19T19:43:56.228Z,85.07
2017-11-19T19:46:23.813Z,85.11
2017-11-19T19:48:52.029Z,84.15
2017-11-19T19:51:19.633Z,84.54
2017-11-19T19:53:47.497Z,84.51
2017-11-19T19:56:15.106Z,84.76
2017-11-19T19:58:42.716Z,85.63
2017-11-19T20:01:10.632Z,84.86
2017-11-19T20:03:38.255Z,84.67
2017-11-19T20:06:05.936Z,84.79
2017-11-19T20:08:33.546Z,84.59
2017-11-19T20:11:01.394Z,84.77
2017-11-19T20:13:29.081Z,83.94
2017-11-19T20:15:56.677Z,84.02
2017-11-19T20:18:24.310Z,83.91
2017-11-19T20:20:51.886Z,84.11
2017-11-19T20:23:19.529Z,82.46
2017-11-19T20:25:47.463Z,81.92
2017-11-19T20:28:15.066Z,81.96
2017-11-19T20:30:42.710Z,81.70
2017-11-19T20:33:10.297Z,81.42
2017-11-19T20:35:37.882Z,82.16
2017-11-19T20:38:05.493Z,81.35
2017-11-19T20:40:33.136Z,81.18
2017-11-19T20:43:00.804Z,80.15
2017-11-19T20:45:28.577Z,80.93
2017-11-19T20:47:56.667Z,81.01
2017-11-19T20:50:24.430Z,82.05
2017-11-19T20:52:52.046Z,80.39
2017-11-19T20:55:19.683Z,79.76
2017-11-19T20:57:47.297Z,80.08
2017-11-19T21:00:14.959Z,78.99
2017-11-19T21:02:42.684Z,79.16
2017-11-19T21:05:10.346Z,78.45
2017-11-19T21:07:38.001Z,77.88
2017-11-19T21:10:05.579Z,78.19
2017-11-19T21:12:33.176Z,77.74
2017-11-19T21:15:00.807Z,77.89
2017-11-19T21:17:28.511Z,77.81
2017-11-19T21:19:56.190Z,78.04
2017-11-19T21:22:23.977Z,77.63
2017-11-19T21:24:51.599Z,78.21
2017-11-19T21:27:19.255Z,76.94
2017-11-19T21:29:46.834Z,76.99
2017-11-19T21:32:14.499Z,77.37
2017-11-19T21:34:42.100Z,76.37
2017-11-19T21:37:09.710Z,75.89
2017-11-19T21:39:37.335Z,77.12
2017-11-19T21:42:05.215Z,76.39
2017-11-19T21:44:32.929Z,76.71
2017-11-19T21:47:00.553Z,76.11
2017-11-19T21:49:28.227Z,76.93
2017-11-19T21:51:55.826Z,76.26
2017-11-19T21:54:23.419Z,76.44
2017-11-19T21:56:52.009Z,75.79
2017-11-19T21:59:19.996Z,76.06
2017-11-19T22:01:47.721Z,76.28
2017-11-19T22:04:15.365Z,76.53
2017-11-19T22:06:42.990Z,75.72
2017-11-19T22:09:10.654Z,75.57
2017-11-19T22:11:38.227Z,75.38
2017-11-19T22:14:06.284Z,75.59
2017-11-19T22:16:33.899Z,76.01
2017-11-19T22:19:01.478Z,76.05
2017-11-19T22:21:29.376Z,76.86
2017-11-19T22:23:56.963Z,76.91
2017-11-19T22:26:24.542Z,77.06
2017-11-19T22:28:52.192Z,76.74
2017-11-19T22:31:19.778Z,77.15
2017-11-19T22:33:47.406Z,76.77
2017-11-19T22:36:14.997Z,77.13
2017-11-19T22:38:42.581Z,77.34
2017-11-19T22:41:10.191Z,77.10
2017-11-19T22:43:37.775Z,77.30
2017-11-19T22:46:05.353Z,76.82
2017-11-19T22:48:33.031Z,77.54
2017-11-19T22:51:00.616Z,77.01
2017-11-19T22:53:28.253Z,77.03
2017-11-19T22:55:55.868Z,77.28
2017-11-19T22:58:23.462Z,76.71
2017-11-19T23:00:51.110Z,76.19
2017-11-19T23:03:18.750Z,76.57
2017-11-19T23:05:46.328Z,76.65
2017-11-19T23:08:13.972Z,76.49
2017-11-19T23:10:41.818Z,76.83
2017-11-19T23:13:09.480Z,76.54
2017-11-19T23:15:37.143Z,76.56
2017-11-19T23:18:04.733Z,75.95
2017-11-19T23:20:32.673Z,76.50
2017-11-19T23:23:00.265Z,76.38
2017-11-19T23:25:27.877Z,76.66
2017-11-19T23:27:55.457Z,77.16
2017-11-19T23:30:23.125Z,77.35
2017-11-19T23:32:50.744Z,76.77
2017-11-19T23:35:18.335Z,76.96
2017-11-19T23:37:46.224Z,76.88
2017-11-19T23:40:13.800Z,77.72
2017-11-19T23:42:41.448Z,77.43
2017-11-19T23:45:09.065Z,78.02
2017-11-19T23:47:36.655Z,77.87
2017-11-19T23:50:04.289Z,78.14
2017-11-19T23:52:31.890Z,78.32
2017-11-19T23:54:59.465Z,78.22
2017-11-19T23:57:27.410Z,79.00
2017-11-19T23:59:54.983Z,78.81
